createdAt,value
2022-12-09T00:01:21.095Z,26.50
2022-12-09T00:04:24.774Z,33.90
2022-12-09T00:07:29.012Z,28.23
2022-12-09T00:10:33.855Z,28.27
2022-12-09T00:13:38.480Z,27.00
2022-12-09T00:16:42.507Z,29.63
2022-12-09T00:19:46.939Z,29.93
2022-12-09T00:22:50.576Z,29.77
2022-12-09T00:25:59.518Z,31.08
2022-12-09T00:29:02.837Z,20.95
2022-12-09T00:32:05.769Z,27.87
2022-12-09T00:35:09.286Z,29.50
2022-12-09T00:38:11.910Z,26.67
2022-12-09T00:41:16.557Z,24.83
2022-12-09T00:44:21.084Z,28.70
2022-12-09T00:47:25.470Z,22.05
2022-12-09T00:50:28.236Z,28.30
2022-12-09T00:53:31.518Z,26.87
2022-12-09T00:56:35.572Z,30.98
2022-12-09T00:59:42.855Z,25.27
2022-12-09T01:02:45.858Z,27.80
2022-12-09T01:05:49.371Z,33.90
2022-12-09T01:08:52.940Z,28.67
2022-12-09T01:11:56.395Z,30.48
2022-12-09T01:14:59.064Z,20.55
2022-12-09T01:18:02.378Z,31.92
2022-12-09T01:21:05.479Z,34.57
2022-12-09T01:24:10.848Z,30.63
2022-12-09T01:27:13.865Z,36.58
2022-12-09T01:30:17.246Z,30.55
2022-12-09T01:33:19.920Z,35.63
2022-12-09T01:36:27.931Z,14.70
2022-12-09T01:39:31.247Z,34.10
2022-12-09T01:42:39.247Z,34.38
2022-12-09T01:45:43.560Z,33.78
2022-12-09T01:48:47.328Z,32.22
2022-12-09T01:52:01.544Z,36.87
2022-12-09T01:55:08.027Z,26.10
2022-12-09T01:58:10.995Z,33.90
2022-12-09T02:01:16.515Z,34.33
2022-12-09T02:04:19.861Z,32.08
2022-12-09T02:07:22.730Z,27.40
2022-12-09T02:10:28.207Z,31.13
2022-12-09T02:13:56.406Z,23.30
2022-12-09T02:17:15.367Z,32.50
2022-12-09T02:20:36.785Z,27.62
2022-12-09T02:23:47.147Z,35.57
2022-12-09T02:27:05.625Z,34.47
2022-12-09T02:30:09.546Z,29.55
2022-12-09T02:33:30.972Z,31.80
2022-12-09T02:36:56.924Z,34.55
2022-12-09T02:40:05.611Z,28.90
2022-12-09T02:43:13.955Z,28.80
2022-12-09T02:46:20.770Z,31.55
2022-12-09T02:49:26.943Z,29.63
2022-12-09T02:52:32.381Z,30.25
2022-12-09T02:55:36.895Z,23.40
2022-12-09T02:58:40.195Z,27.03
2022-12-09T03:02:12.517Z,28.10
2022-12-09T03:05:27.247Z,29.23
2022-12-09T03:09:08.832Z,28.15
2022-12-09T03:12:19.434Z,29.70
2022-12-09T03:15:25.943Z,30.93
2022-12-09T03:18:33.492Z,28.85
2022-12-09T03:21:42.820Z,30.15
2022-12-09T03:24:53.979Z,30.73
2022-12-09T03:28:01.988Z,33.47
2022-12-09T03:31:09.906Z,25.87
2022-12-09T03:34:17.651Z,32.40
2022-12-09T03:37:21.957Z,29.48
2022-12-09T03:40:28.363Z,28.12
2022-12-09T03:43:37.588Z,33.43
2022-12-09T03:46:40.801Z,29.97
2022-12-09T03:49:44.166Z,27.17
2022-12-09T03:52:56.519Z,26.83
2022-12-09T03:56:08.582Z,27.83
2022-12-09T03:59:13.317Z,32.40
2022-12-09T04:02:16.607Z,31.17
2022-12-09T04:05:19.776Z,34.85
2022-12-09T04:08:22.660Z,31.83
2022-12-09T04:11:25.755Z,27.13
2022-12-09T04:14:29.493Z,33.10
2022-12-09T04:17:32.903Z,34.87
2022-12-09T04:20:35.782Z,34.58
2022-12-09T04:23:43.003Z,31.52
2022-12-09T04:26:47.441Z,32.38
2022-12-09T04:29:50.698Z,33.17
2022-12-09T04:32:53.724Z,30.13
2022-12-09T04:36:07.497Z,34.80
2022-12-09T04:39:10.679Z,30.45
2022-12-09T04:42:13.766Z,31.20
2022-12-09T04:45:16.578Z,27.50
2022-12-09T04:48:19.823Z,33.10
2022-12-09T04:51:23.500Z,29.30
2022-12-09T04:54:26.718Z,35.42
2022-12-09T04:57:30.273Z,28.02
2022-12-09T05:00:33.390Z,39.80
2022-12-09T05:03:36.782Z,32.07
2022-12-09T05:06:40.187Z,28.77
2022-12-09T05:09:43.140Z,28.27
2022-12-09T05:12:46.403Z,30.45
2022-12-09T05:15:49.237Z,31.43
2022-12-09T05:18:54.726Z,30.17
2022-12-09T05:21:57.627Z,31.48
2022-12-09T05:25:01.719Z,30.83
2022-12-09T05:28:04.548Z,32.35
2022-12-09T05:31:11.521Z,31.97
2022-12-09T05:34:15.158Z,29.27
2022-12-09T05:37:18.316Z,25.65
2022-12-09T05:40:21.192Z,31.95
2022-12-09T05:43:24.367Z,30.88
2022-12-09T05:46:27.502Z,32.87
2022-12-09T05:49:31.288Z,29.57
2022-12-09T05:52:37.924Z,26.42
2022-12-09T05:55:42.086Z,18.75
2022-12-09T05:58:47.624Z,17.42
2022-12-09T06:01:51.225Z,36.03
2022-12-09T06:04:56.247Z,35.23
2022-12-09T06:08:05.115Z,32.50
2022-12-09T06:11:16.670Z,34.20
2022-12-09T06:14:19.892Z,38.55
2022-12-09T06:17:23.004Z,31.80
2022-12-09T06:20:25.843Z,40.87
2022-12-09T06:23:28.882Z,38.20
2022-12-09T06:26:31.941Z,16.85
2022-12-09T06:29:34.958Z,25.90
2022-12-09T06:32:38.220Z,26.27
2022-12-09T06:35:41.712Z,21.97
2022-12-09T06:38:45.019Z,21.40
2022-12-09T06:41:49.134Z,25.27
2022-12-09T06:44:53.392Z,23.27
2022-12-09T06:47:56.567Z,27.40
2022-12-09T06:51:02.038Z,28.77
2022-12-09T06:54:07.233Z,31.23
2022-12-09T06:57:10.242Z,34.28
2022-12-09T07:00:15.978Z,23.80
2022-12-09T07:03:19.039Z,30.50
2022-12-09T07:06:29.849Z,23.67
2022-12-09T07:09:33.234Z,22.20
2022-12-09T07:12:36.655Z,25.65
2022-12-09T07:15:39.325Z,30.83
2022-12-09T07:18:42.419Z,26.83
2022-12-09T07:21:46.215Z,22.73
2022-12-09T07:24:49.344Z,27.23
2022-12-09T07:27:52.280Z,24.48
2022-12-09T07:30:55.676Z,29.58
2022-12-09T07:33:59.398Z,20.63
2022-12-09T07:37:03.254Z,19.50
2022-12-09T07:40:07.327Z,23.00
2022-12-09T07:43:10.623Z,21.73
2022-12-09T07:46:15.720Z,16.00
2022-12-09T07:49:19.196Z,16.80
2022-12-09T07:52:22.828Z,30.93
2022-12-09T07:55:26.249Z,33.53
2022-12-09T07:58:29.871Z,16.62
2022-12-09T08:01:33.257Z,21.90
2022-12-09T08:04:36.635Z,15.73
2022-12-09T08:07:44.236Z,19.37
2022-12-09T08:10:48.402Z,15.30
2022-12-09T08:13:51.863Z,35.45
2022-12-09T08:16:57.067Z,49.50
2022-12-09T08:20:00.248Z,15.23
2022-12-09T08:23:03.560Z,53.47
2022-12-09T08:26:06.929Z,43.22
2022-12-09T08:29:12.445Z,14.57
2022-12-09T08:32:17.908Z,25.25
2022-12-09T08:35:21.085Z,39.17
2022-12-09T08:38:25.183Z,12.93
2022-12-09T08:41:38.444Z,36.78
2022-12-09T08:44:42.310Z,19.90
2022-12-09T08:47:45.484Z,19.37
2022-12-09T08:50:48.798Z,16.73
2022-12-09T08:53:52.338Z,15.70
2022-12-09T08:56:56.240Z,24.65
2022-12-09T08:59:59.803Z,10.13
2022-12-09T09:03:02.965Z,12.73
2022-12-09T09:06:10.757Z,11.20
2022-12-09T09:09:14.707Z,13.77
2022-12-09T09:12:18.811Z,15.25
2022-12-09T09:15:22.131Z,14.40
2022-12-09T09:18:26.217Z,17.00
2022-12-09T09:21:29.198Z,13.53
2022-12-09T09:24:32.592Z,32.20
2022-12-09T09:27:36.023Z,18.90
2022-12-09T09:30:39.974Z,14.38
2022-12-09T09:33:44.452Z,24.87
2022-12-09T09:36:48.474Z,23.83
2022-12-09T09:39:51.413Z,10.07
2022-12-09T09:42:58.022Z,17.33
2022-12-09T09:46:01.453Z,22.00
2022-12-09T09:49:11.406Z,14.57
2022-12-09T09:52:21.160Z,42.30
2022-12-09T09:55:50.437Z,18.83
2022-12-09T09:59:30.172Z,20.00
2022-12-09T10:02:40.913Z,15.45
2022-12-09T10:05:53.227Z,14.65
2022-12-09T10:09:02.651Z,14.53
2022-12-09T10:12:45.321Z,17.55
2022-12-09T10:16:01.634Z,18.48
2022-12-09T10:19:12.408Z,18.85
2022-12-09T10:22:21.452Z,17.10
2022-12-09T10:25:27.481Z,36.70
2022-12-09T10:28:37.132Z,20.73
2022-12-09T10:31:41.270Z,14.57
2022-12-09T10:34:46.187Z,34.53
2022-12-09T10:37:52.671Z,18.50
2022-12-09T10:41:36.880Z,14.10
2022-12-09T10:44:41.179Z,15.52
2022-12-09T10:47:51.534Z,30.17
2022-12-09T10:51:00.080Z,22.00
2022-12-09T10:54:10.597Z,17.80
2022-12-09T10:57:16.389Z,20.07
2022-12-09T11:00:28.337Z,19.08
2022-12-09T11:03:40.806Z,15.68
2022-12-09T11:06:45.884Z,16.95
2022-12-09T11:09:51.180Z,19.23
2022-12-09T11:13:08.034Z,19.63
2022-12-09T11:16:12.495Z,18.27
2022-12-09T11:19:16.088Z,19.02
2022-12-09T11:22:39.638Z,17.33
2022-12-09T11:25:59.396Z,24.83
2022-12-09T11:29:12.599Z,22.90
2022-12-09T11:32:15.448Z,26.83
2022-12-09T11:35:24.088Z,23.75
2022-12-09T11:38:45.922Z,18.67
2022-12-09T11:42:16.498Z,17.52
2022-12-09T11:45:28.952Z,14.67
2022-12-09T11:48:40.113Z,15.60
2022-12-09T11:52:06.628Z,17.67
2022-12-09T11:55:30.027Z,14.55
2022-12-09T11:58:45.464Z,14.48
2022-12-09T12:01:51.325Z,14.07
2022-12-09T12:05:21.222Z,17.90
2022-12-09T12:08:34.757Z,14.18
2022-12-09T12:12:14.489Z,20.98
2022-12-09T12:15:32.674Z,18.08
2022-12-09T12:18:43.941Z,15.27
2022-12-09T12:21:57.119Z,18.58
2022-12-09T12:25:31.744Z,24.37
2022-12-09T12:28:48.506Z,21.08
2022-12-09T12:31:56.583Z,15.25
2022-12-09T12:35:42.608Z,13.90
2022-12-09T12:39:05.781Z,18.55
2022-12-09T12:42:14.130Z,15.45
2022-12-09T12:45:50.261Z,15.52
2022-12-09T12:49:41.416Z,16.20
2022-12-09T12:53:18.678Z,19.47
2022-12-09T12:56:35.257Z,20.77
2022-12-09T12:59:55.093Z,21.08
2022-12-09T13:03:21.097Z,21.40
2022-12-09T13:06:41.650Z,21.95
2022-12-09T13:09:53.604Z,23.83
2022-12-09T13:12:58.739Z,27.13
2022-12-09T13:16:18.805Z,25.58
2022-12-09T13:19:38.744Z,27.95
2022-12-09T13:23:13.018Z,47.60
2022-12-09T13:26:31.236Z,33.20
2022-12-09T13:30:15.380Z,27.55
2022-12-09T13:33:54.313Z,25.90
2022-12-09T13:36:59.712Z,25.12
2022-12-09T13:40:21.076Z,19.23
2022-12-09T13:43:30.385Z,14.80
2022-12-09T13:46:34.257Z,20.08
2022-12-09T13:49:39.180Z,10.70
2022-12-09T13:52:50.309Z,18.90
2022-12-09T13:55:56.000Z,74.70
2022-12-09T13:59:40.801Z,38.70
2022-12-09T14:02:54.593Z,29.25
2022-12-09T14:06:00.978Z,27.42
2022-12-09T14:09:20.347Z,26.30
2022-12-09T14:12:26.735Z,29.33
2022-12-09T14:15:29.480Z,29.90
2022-12-09T14:18:33.541Z,24.55
2022-12-09T14:21:36.115Z,47.80
2022-12-09T14:24:39.289Z,46.08
2022-12-09T14:28:10.954Z,23.83
2022-12-09T14:31:46.186Z,22.67
2022-12-09T14:35:01.269Z,44.30
2022-12-09T14:38:25.410Z,47.55
2022-12-09T14:41:44.947Z,45.10
2022-12-09T14:45:25.337Z,34.42
2022-12-09T14:48:40.642Z,22.43
2022-12-09T14:51:49.035Z,20.98
2022-12-09T14:54:54.503Z,17.27
2022-12-09T14:58:01.291Z,15.63
2022-12-09T15:01:07.376Z,17.75
2022-12-09T15:04:32.573Z,20.30
2022-12-09T15:07:35.613Z,15.82
2022-12-09T15:10:39.287Z,14.82
2022-12-09T15:13:45.627Z,16.70
2022-12-09T15:16:51.069Z,15.50
2022-12-09T15:20:01.043Z,19.93
2022-12-09T15:23:24.421Z,17.58
2022-12-09T15:26:33.460Z,20.65
2022-12-09T15:29:37.106Z,20.95
2022-12-09T15:32:40.333Z,18.80
2022-12-09T15:35:59.233Z,13.60
2022-12-09T15:39:29.421Z,24.37
2022-12-09T15:42:39.387Z,20.23
2022-12-09T15:45:44.396Z,20.48
2022-12-09T15:48:52.931Z,25.73
2022-12-09T15:51:57.357Z,22.77
2022-12-09T15:55:07.482Z,26.92
2022-12-09T15:58:14.848Z,22.87
2022-12-09T16:01:30.073Z,18.98
2022-12-09T16:04:37.181Z,24.25
2022-12-09T16:08:02.528Z,21.37
2022-12-09T16:11:06.383Z,27.13
2022-12-09T16:14:10.527Z,22.30
2022-12-09T16:17:37.082Z,27.25
2022-12-09T16:20:45.384Z,22.17
2022-12-09T16:23:53.516Z,21.33
2022-12-09T16:26:58.039Z,19.20
2022-12-09T16:30:13.274Z,27.95
2022-12-09T16:33:21.855Z,15.13
2022-12-09T16:36:29.050Z,20.62
2022-12-09T16:39:34.731Z,26.80
2022-12-09T16:42:41.004Z,24.20
2022-12-09T16:45:57.328Z,24.65
2022-12-09T16:49:05.431Z,21.25
2022-12-09T16:52:23.014Z,20.27
2022-12-09T16:55:32.269Z,22.43
2022-12-09T16:58:36.798Z,11.38
2022-12-09T17:01:43.693Z,18.55
2022-12-09T17:04:48.891Z,15.48
2022-12-09T17:07:53.226Z,21.00
2022-12-09T17:10:57.610Z,18.73
2022-12-09T17:14:01.876Z,22.10
2022-12-09T17:17:05.827Z,20.02
2022-12-09T17:20:10.177Z,19.12
2022-12-09T17:23:14.443Z,15.55
2022-12-09T17:26:21.143Z,26.77
2022-12-09T17:29:26.173Z,30.15
2022-12-09T17:32:33.286Z,13.43
2022-12-09T17:35:39.081Z,13.27
2022-12-09T17:38:44.512Z,15.98
2022-12-09T17:41:49.430Z,36.17
2022-12-09T17:44:57.296Z,14.45
2022-12-09T17:48:00.851Z,12.30
2022-12-09T17:51:17.225Z,14.05
2022-12-09T17:54:20.778Z,14.55
2022-12-09T17:57:24.433Z,11.47
2022-12-09T18:00:27.846Z,13.00
2022-12-09T18:03:54.816Z,14.13
2022-12-09T18:06:54.514Z,9.30
2022-12-09T18:09:57.987Z,12.13
2022-12-09T18:13:04.224Z,12.10
2022-12-09T18:16:12.553Z,8.55
2022-12-09T18:19:17.948Z,7.57
2022-12-09T18:22:21.602Z,6.65
2022-12-09T18:25:24.918Z,11.50
2022-12-09T18:28:28.253Z,7.50
2022-12-09T18:31:32.277Z,8.25
2022-12-09T18:34:36.919Z,7.82
2022-12-09T18:37:40.104Z,8.00
2022-12-09T18:41:04.241Z,8.00
2022-12-09T18:44:08.639Z,14.73
2022-12-09T18:47:13.179Z,9.38
2022-12-09T18:50:16.982Z,14.05
2022-12-09T18:53:20.966Z,8.77
2022-12-09T18:56:26.054Z,11.20
2022-12-09T18:59:31.480Z,8.83
2022-12-09T19:02:35.079Z,42.05
2022-12-09T19:05:41.090Z,19.33
2022-12-09T19:08:44.824Z,19.77
2022-12-09T19:11:50.295Z,20.48
2022-12-09T19:14:54.471Z,23.03
2022-12-09T19:17:59.579Z,14.85
2022-12-09T19:21:16.093Z,7.47
2022-12-09T19:24:26.921Z,11.85
2022-12-09T19:27:30.938Z,9.48
2022-12-09T19:30:36.874Z,10.37
2022-12-09T19:33:41.555Z,19.75
2022-12-09T19:36:47.500Z,12.70
2022-12-09T19:39:56.369Z,16.15
2022-12-09T19:43:04.056Z,9.43
2022-12-09T19:46:11.492Z,13.07
2022-12-09T19:49:17.558Z,12.15
2022-12-09T19:52:21.650Z,16.27
2022-12-09T19:55:25.847Z,6.85
2022-12-09T19:58:31.739Z,7.87
2022-12-09T20:01:47.155Z,10.50
2022-12-09T20:04:53.917Z,8.18
2022-12-09T20:07:58.514Z,8.30
2022-12-09T20:11:05.398Z,8.60
2022-12-09T20:14:14.939Z,11.48
2022-12-09T20:17:19.859Z,8.90
2022-12-09T20:20:25.059Z,8.05
2022-12-09T20:23:29.146Z,5.93
2022-12-09T20:26:35.991Z,15.45
2022-12-09T20:29:41.566Z,9.02
2022-12-09T20:32:44.746Z,14.50
2022-12-09T20:35:49.101Z,18.98
2022-12-09T20:39:00.456Z,13.15
2022-12-09T20:42:06.012Z,10.60
2022-12-09T20:45:11.912Z,10.45
2022-12-09T20:48:18.429Z,10.83
2022-12-09T20:51:27.973Z,12.90
2022-12-09T20:54:32.567Z,13.20
2022-12-09T20:57:39.409Z,14.70
2022-12-09T21:00:44.843Z,11.25
2022-12-09T21:03:49.554Z,17.33
2022-12-09T21:06:54.350Z,17.42
2022-12-09T21:09:58.096Z,20.73
2022-12-09T21:13:02.373Z,20.70
2022-12-09T21:16:16.448Z,17.25
2022-12-09T21:19:30.695Z,20.00
2022-12-09T21:22:35.761Z,18.90
2022-12-09T21:25:40.864Z,19.92
2022-12-09T21:28:46.571Z,20.58
2022-12-09T21:31:52.871Z,22.45
2022-12-09T21:34:58.538Z,21.50
2022-12-09T21:38:03.113Z,20.70
2022-12-09T21:41:09.996Z,17.40
2022-12-09T21:44:17.049Z,20.85
2022-12-09T21:47:23.472Z,19.65
2022-12-09T21:50:28.749Z,17.43
2022-12-09T21:53:32.501Z,18.80
2022-12-09T21:56:37.271Z,12.05
2022-12-09T21:59:40.067Z,13.05
2022-12-09T22:02:44.881Z,14.48
2022-12-09T22:05:47.877Z,16.43
2022-12-09T22:08:50.848Z,15.32
2022-12-09T22:11:53.896Z,18.52
2022-12-09T22:14:56.748Z,21.77
2022-12-09T22:17:59.676Z,22.10
2022-12-09T22:21:25.335Z,20.27
2022-12-09T22:24:32.790Z,19.73
2022-12-09T22:27:37.106Z,17.90
2022-12-09T22:30:41.571Z,17.20
2022-12-09T22:33:44.879Z,14.85
2022-12-09T22:36:50.437Z,16.70
2022-12-09T22:39:54.118Z,14.85
2022-12-09T22:42:57.731Z,16.00
2022-12-09T22:46:10.080Z,17.90
2022-12-09T22:49:14.467Z,15.70
2022-12-09T22:52:17.093Z,15.43
2022-12-09T22:55:20.014Z,16.37
2022-12-09T22:58:23.062Z,15.90
2022-12-09T23:01:30.969Z,15.73
2022-12-09T23:04:36.494Z,15.57
2022-12-09T23:07:39.541Z,15.63
2022-12-09T23:10:42.418Z,15.43
2022-12-09T23:13:46.677Z,15.68
2022-12-09T23:16:49.698Z,15.15
2022-12-09T23:19:52.688Z,17.02
2022-12-09T23:22:55.341Z,15.73
2022-12-09T23:26:10.286Z,15.48
2022-12-09T23:29:16.097Z,16.08
2022-12-09T23:32:19.283Z,15.40
2022-12-09T23:35:22.005Z,15.65
2022-12-09T23:38:25.029Z,17.20
2022-12-09T23:41:28.539Z,20.00
2022-12-09T23:44:31.500Z,17.83
2022-12-09T23:47:34.210Z,20.92
2022-12-09T23:50:37.237Z,17.15
2022-12-09T23:53:41.242Z,18.47
2022-12-09T23:56:50.053Z,17.00
2022-12-09T23:59:52.766Z,19.67
